createdAt,value
2016-12-24T00:00:34.556Z,1014.44
2016-12-24T00:01:44.564Z,1014.43
2016-12-24T00:02:54.584Z,1014.45
2016-12-24T00:04:04.923Z,1014.42
2016-12-24T00:05:14.949Z,1014.44
2016-12-24T00:06:25.279Z,1014.38
2016-12-24T00:07:35.651Z,1014.39
2016-12-24T00:08:45.663Z,1014.37
2016-12-24T00:09:55.696Z,1014.36
2016-12-24T00:11:06.032Z,1014.4
2016-12-24T00:12:16.409Z,1014.36
2016-12-24T00:13:26.105Z,1014.38
2016-12-24T00:14:36.451Z,1014.33
2016-12-24T00:15:46.168Z,1014.34
2016-12-24T00:16:56.501Z,1014.32
2016-12-24T00:18:06.818Z,1014.33
2016-12-24T00:19:16.829Z,1014.32
2016-12-24T00:20:26.845Z,1014.31
2016-12-24T00:21:36.859Z,1014.29
2016-12-24T00:22:47.218Z,1014.25
2016-12-24T00:23:57.573Z,1014.32
2016-12-24T00:25:07.285Z,1014.3
2016-12-24T00:26:17.296Z,1014.29
2016-12-24T00:27:27.607Z,1014.26
2016-12-24T00:28:37.933Z,1014.25
2016-12-24T00:29:48.280Z,1014.23
2016-12-24T00:30:57.981Z,1014.17
2016-12-24T00:32:08.297Z,1014.2
2016-12-24T00:33:18.310Z,1014.17
2016-12-24T00:34:28.325Z,1014.19
2016-12-24T00:35:38.342Z,1014.19
2016-12-24T00:36:48.664Z,1014.22
2016-12-24T00:37:58.701Z,1014.22
2016-12-24T00:39:08.735Z,1014.23
2016-12-24T00:40:18.764Z,1014.15
2016-12-24T00:41:28.791Z,1014.17
2016-12-24T00:42:39.124Z,1014.15
2016-12-24T00:43:49.481Z,1014.13
2016-12-24T00:44:58.871Z,1014.1
2016-12-24T00:46:08.885Z,1014.12
2016-12-24T00:47:18.889Z,1014.08
2016-12-24T00:48:28.917Z,1014.09
2016-12-24T00:49:38.938Z,1014.1
2016-12-24T00:50:48.329Z,1014.08
2016-12-24T00:51:58.656Z,1014.07
2016-12-24T00:53:08.365Z,1014.06
2016-12-24T00:54:18.379Z,1014.07
2016-12-24T00:55:28.711Z,1014.1
2016-12-24T00:56:38.419Z,1014.02
2016-12-24T00:57:48.740Z,1014.07
2016-12-24T00:58:59.066Z,1014.08
2016-12-24T01:00:09.099Z,1014.04
2016-12-24T01:01:19.370Z,1014.08
2016-12-24T01:02:29.381Z,1014.01
2016-12-24T01:03:39.089Z,1014.02
2016-12-24T01:04:48.788Z,1014.01
2016-12-24T01:05:58.793Z,1013.99
2016-12-24T01:07:08.803Z,1014
2016-12-24T01:08:19.122Z,1014.03
2016-12-24T01:09:28.512Z,1013.98
2016-12-24T01:10:38.829Z,1013.98
2016-12-24T01:11:48.839Z,1013.94
2016-12-24T01:12:57.947Z,1013.98
2016-12-24T01:14:08.265Z,1013.96
2016-12-24T01:15:18.274Z,1013.91
2016-12-24T01:16:28.612Z,1013.91
2016-12-24T01:17:38.614Z,1013.86
2016-12-24T01:18:48.936Z,1013.87
2016-12-24T01:19:58.947Z,1013.84
2016-12-24T01:21:08.969Z,1013.85
2016-12-24T01:22:18.972Z,1013.83
2016-12-24T01:23:28.977Z,1013.77
2016-12-24T01:24:39.325Z,1013.81
2016-12-24T01:25:49.030Z,1013.79
2016-12-24T01:26:59.035Z,1013.75
2016-12-24T01:28:09.359Z,1013.75
2016-12-24T01:29:19.375Z,1013.74
2016-12-24T01:30:29.713Z,1013.73
2016-12-24T01:31:40.045Z,1013.69
2016-12-24T01:32:50.366Z,1013.66
2016-12-24T01:34:00.718Z,1013.6
2016-12-24T01:35:11.030Z,1013.6
2016-12-24T01:36:21.351Z,1013.6
2016-12-24T01:37:31.672Z,1013.53
2016-12-24T01:38:42.004Z,1013.53
2016-12-24T01:39:52.322Z,1013.53
2016-12-24T01:41:02.334Z,1013.55
2016-12-24T01:42:12.679Z,1013.54
2016-12-24T01:43:22.696Z,1013.54
2016-12-24T01:44:33.029Z,1013.53
2016-12-24T01:45:42.734Z,1013.53
2016-12-24T01:46:53.055Z,1013.52
2016-12-24T01:48:03.062Z,1013.5
2016-12-24T01:49:13.071Z,1013.48
2016-12-24T01:50:23.421Z,1013.46
2016-12-24T01:51:33.742Z,1013.45
2016-12-24T01:52:43.761Z,1013.39
2016-12-24T01:53:54.074Z,1013.39
2016-12-24T01:55:04.389Z,1013.36
2016-12-24T01:56:14.092Z,1013.36
2016-12-24T01:57:24.110Z,1013.42
2016-12-24T01:58:34.432Z,1013.41
2016-12-24T01:59:44.761Z,1013.43
2016-12-24T02:00:54.782Z,1013.45
2016-12-24T02:02:04.787Z,1013.45
2016-12-24T02:03:14.807Z,1013.44
2016-12-24T02:04:24.828Z,1013.44
2016-12-24T02:05:35.156Z,1013.36
2016-12-24T02:06:45.197Z,1013.37
2016-12-24T02:07:55.203Z,1013.33
2016-12-24T02:09:05.530Z,1013.35
2016-12-24T02:10:15.235Z,1013.37
2016-12-24T02:11:24.621Z,1013.37
2016-12-24T02:12:34.940Z,1013.37
2016-12-24T02:13:44.953Z,1013.35
2016-12-24T02:14:54.644Z,1013.33
2016-12-24T02:16:04.356Z,1013.29
2016-12-24T02:17:14.677Z,1013.38
2016-12-24T02:18:24.685Z,1013.34
2016-12-24T02:19:35.016Z,1013.31
2016-12-24T02:20:45.023Z,1013.34
2016-12-24T02:21:55.395Z,1013.3
2016-12-24T02:23:05.723Z,1013.29
2016-12-24T02:24:15.739Z,1013.24
2016-12-24T02:25:26.067Z,1013.22
2016-12-24T02:26:36.076Z,1013.2
2016-12-24T02:27:46.084Z,1013.18
2016-12-24T02:28:56.092Z,1013.17
2016-12-24T02:30:05.782Z,1013.13
2016-12-24T02:31:16.084Z,1013.14
2016-12-24T02:32:26.134Z,1013.11
2016-12-24T02:33:36.455Z,1013.11
2016-12-24T02:34:46.459Z,1013.07
2016-12-24T02:35:56.775Z,1013.06
2016-12-24T02:37:06.189Z,1013.04
2016-12-24T02:38:16.201Z,1013
2016-12-24T02:39:26.532Z,1013.03
2016-12-24T02:40:37.081Z,1013.03
2016-12-24T02:41:47.401Z,1013
2016-12-24T02:42:57.731Z,1013.01
2016-12-24T02:44:07.432Z,1012.98
2016-12-24T02:45:17.444Z,1013.03
2016-12-24T02:46:27.760Z,1013.06
2016-12-24T02:47:37.768Z,1013.05
2016-12-24T02:48:48.092Z,1012.98
2016-12-24T02:49:58.136Z,1012.98
2016-12-24T02:51:07.831Z,1012.96
2016-12-24T02:52:18.151Z,1012.96
2016-12-24T02:53:27.839Z,1012.96
2016-12-24T02:54:38.151Z,1012.91
2016-12-24T02:55:48.152Z,1012.92
2016-12-24T02:56:57.843Z,1012.94
2016-12-24T02:58:08.171Z,1012.97
2016-12-24T02:59:18.194Z,1013
2016-12-24T03:00:28.214Z,1013.05
2016-12-24T03:01:38.249Z,1013.05
2016-12-24T03:33:11.008Z,1012.73
2016-12-24T03:34:21.309Z,1012.71
2016-12-24T03:35:30.689Z,1012.71
2016-12-24T03:36:40.693Z,1012.69
2016-12-24T03:37:50.386Z,1012.66
2016-12-24T03:39:00.095Z,1012.63
2016-12-24T03:40:10.093Z,1012.68
2016-12-24T03:41:20.101Z,1012.65
2016-12-24T03:42:30.125Z,1012.68
2016-12-24T03:43:40.448Z,1012.66
2016-12-24T03:44:50.775Z,1012.7
2016-12-24T03:46:00.777Z,1012.77
2016-12-24T03:47:11.087Z,1012.74
2016-12-24T03:48:21.410Z,1012.74
2016-12-24T03:49:31.737Z,1012.74
2016-12-24T03:50:42.044Z,1012.75
2016-12-24T03:51:52.361Z,1012.75
2016-12-24T03:53:02.371Z,1012.74
2016-12-24T03:54:12.369Z,1012.72
2016-12-24T03:55:22.695Z,1012.71
2016-12-24T03:56:32.392Z,1012.67
2016-12-24T03:57:42.700Z,1012.56
2016-12-24T03:58:52.700Z,1012.59
2016-12-24T04:00:02.407Z,1012.57
2016-12-24T04:01:12.423Z,1012.59
2016-12-24T04:02:22.436Z,1012.59
2016-12-24T04:03:32.446Z,1012.58
2016-12-24T04:04:42.460Z,1012.65
2016-12-24T04:05:52.775Z,1012.66
2016-12-24T04:07:02.474Z,1012.7
2016-12-24T04:08:12.785Z,1012.71
2016-12-24T04:09:23.102Z,1012.72
2016-12-24T04:10:33.418Z,1012.7
2016-12-24T04:11:43.431Z,1012.72
2016-12-24T04:12:53.791Z,1012.66
2016-12-24T04:14:03.488Z,1012.66
2016-12-24T04:15:13.860Z,1012.66
2016-12-24T04:16:23.871Z,1012.66
2016-12-24T04:17:34.182Z,1012.7
2016-12-24T04:18:44.520Z,1012.73
2016-12-24T04:19:54.526Z,1012.79
2016-12-24T04:21:04.533Z,1012.8
2016-12-24T04:22:14.547Z,1012.83
2016-12-24T04:23:24.891Z,1012.86
2016-12-24T04:24:35.220Z,1012.82
2016-12-24T04:25:45.546Z,1012.83
2016-12-24T04:26:55.786Z,1012.83
2016-12-24T04:28:06.114Z,1012.81
2016-12-24T04:29:16.112Z,1012.75
2016-12-24T04:30:26.436Z,1012.75
2016-12-24T04:31:36.454Z,1012.75
2016-12-24T04:32:46.770Z,1012.68
2016-12-24T04:33:56.773Z,1012.63
2016-12-24T04:35:07.095Z,1012.61
2016-12-24T04:36:17.416Z,1012.57
2016-12-24T04:37:27.113Z,1012.55
2016-12-24T04:38:37.439Z,1012.55
2016-12-24T04:39:47.752Z,1012.53
2016-12-24T04:40:57.442Z,1012.6
2016-12-24T04:42:07.763Z,1012.59
2016-12-24T04:43:17.767Z,1012.66
2016-12-24T04:44:27.458Z,1012.7
2016-12-24T04:45:37.192Z,1012.72
2016-12-24T04:46:47.206Z,1012.7
2016-12-24T04:47:57.552Z,1012.72
2016-12-24T04:49:07.550Z,1012.67
2016-12-24T04:50:16.933Z,1012.68
2016-12-24T04:51:27.249Z,1012.69
2016-12-24T04:52:37.569Z,1012.71
2016-12-24T04:53:47.916Z,1012.66
2016-12-24T04:54:57.613Z,1012.66
2016-12-24T04:56:07.960Z,1012.64
2016-12-24T04:57:18.272Z,1012.63
2016-12-24T04:58:28.300Z,1012.55
2016-12-24T04:59:38.026Z,1012.5
2016-12-24T05:00:47.729Z,1012.44
2016-12-24T05:01:57.768Z,1012.43
2016-12-24T05:03:07.467Z,1012.46
2016-12-24T05:04:17.472Z,1012.52
2016-12-24T05:05:27.481Z,1012.55
2016-12-24T05:06:37.801Z,1012.62
2016-12-24T05:07:47.804Z,1012.71
2016-12-24T05:08:58.123Z,1012.68
2016-12-24T05:10:07.829Z,1012.7
2016-12-24T05:11:17.842Z,1012.63
2016-12-24T05:12:27.876Z,1012.59
2016-12-24T05:13:37.885Z,1012.55
2016-12-24T05:14:48.213Z,1012.61
2016-12-24T05:15:58.526Z,1012.68
2016-12-24T05:17:08.852Z,1012.69
2016-12-24T05:18:19.182Z,1012.71
2016-12-24T05:19:28.879Z,1012.72
2016-12-24T05:20:38.886Z,1012.7
2016-12-24T05:21:48.894Z,1012.63
2016-12-24T05:22:59.201Z,1012.7
2016-12-24T05:24:09.207Z,1012.69
2016-12-24T05:25:18.938Z,1012.73
2016-12-24T05:26:28.955Z,1012.76
2016-12-24T05:27:38.962Z,1012.73
2016-12-24T05:28:49.275Z,1012.68
2016-12-24T05:29:59.631Z,1012.68
2016-12-24T05:31:09.961Z,1012.73
2016-12-24T05:32:20.280Z,1012.77
2016-12-24T05:33:29.976Z,1012.78
2016-12-24T05:34:40.294Z,1012.67
2016-12-24T05:35:50.648Z,1012.6
2016-12-24T05:37:00.961Z,1012.59
2016-12-24T05:38:10.657Z,1012.65
2016-12-24T05:39:20.356Z,1012.74
2016-12-24T05:40:30.736Z,1012.79
2016-12-24T05:41:40.427Z,1012.83
2016-12-24T05:42:50.742Z,1012.82
2016-12-24T05:44:01.067Z,1012.78
2016-12-24T05:45:11.100Z,1012.75
2016-12-24T05:46:21.095Z,1012.7
2016-12-24T05:47:31.108Z,1012.64
2016-12-24T05:48:41.120Z,1012.56
2016-12-24T05:49:51.440Z,1012.52
2016-12-24T05:51:01.452Z,1012.49
2016-12-24T05:52:11.154Z,1012.5
2016-12-24T05:53:21.157Z,1012.52
2016-12-24T05:54:31.169Z,1012.56
2016-12-24T05:55:40.555Z,1012.63
2016-12-24T05:56:50.245Z,1012.67
2016-12-24T05:58:00.572Z,1012.78
2016-12-24T05:59:10.893Z,1012.83
2016-12-24T06:00:20.591Z,1012.84
2016-12-24T06:01:30.913Z,1012.81
2016-12-24T06:02:41.223Z,1012.74
2016-12-24T06:03:51.549Z,1012.7
2016-12-24T06:05:01.874Z,1012.71
2016-12-24T06:06:12.199Z,1012.75
2016-12-24T06:07:22.205Z,1012.64
2016-12-24T06:08:32.535Z,1012.49
2016-12-24T06:09:42.548Z,1012.46
2016-12-24T06:10:52.916Z,1012.39
2016-12-24T06:12:03.242Z,1012.35
2016-12-24T06:13:13.553Z,1012.43
2016-12-24T06:14:23.596Z,1012.48
2016-12-24T06:15:33.921Z,1012.49
2016-12-24T06:16:44.248Z,1012.53
2016-12-24T06:17:54.571Z,1012.59
2016-12-24T06:19:04.579Z,1012.69
2016-12-24T06:20:14.890Z,1012.67
2016-12-24T06:21:24.901Z,1012.65
2016-12-24T06:22:35.224Z,1012.54
2016-12-24T06:23:45.554Z,1012.48
2016-12-24T06:24:55.557Z,1012.39
2016-12-24T06:26:05.878Z,1012.35
2016-12-24T06:27:15.569Z,1012.5
2016-12-24T06:28:25.306Z,1012.72
2016-12-24T06:29:35.312Z,1012.84
2016-12-24T06:30:45.619Z,1012.75
2016-12-24T06:31:55.007Z,1012.65
2016-12-24T06:33:04.713Z,1012.56
2016-12-24T06:34:14.716Z,1012.69
2016-12-24T06:35:25.034Z,1012.78
2016-12-24T06:36:35.048Z,1012.75
2016-12-24T06:37:44.751Z,1012.71
2016-12-24T06:38:55.078Z,1012.61
2016-12-24T06:40:05.092Z,1012.52
2016-12-24T06:41:15.092Z,1012.53
2016-12-24T06:42:25.092Z,1012.52
2016-12-24T06:43:35.404Z,1012.53
2016-12-24T06:44:45.724Z,1012.48
2016-12-24T06:45:55.732Z,1012.42
2016-12-24T06:47:05.438Z,1012.47
2016-12-24T06:48:15.450Z,1012.47
2016-12-24T06:49:25.783Z,1012.47
2016-12-24T06:50:36.114Z,1012.43
2016-12-24T06:51:46.451Z,1012.36
2016-12-24T06:52:56.908Z,1012.23
2016-12-24T06:54:07.233Z,1012.2
2016-12-24T06:55:16.935Z,1012.28
2016-12-24T06:56:27.247Z,1012.31
2016-12-24T06:57:37.306Z,1012.24
2016-12-24T06:58:47.320Z,1012.31
2016-12-24T06:59:57.022Z,1012.31
2016-12-24T07:01:07.334Z,1012.36
2016-12-24T07:02:17.338Z,1012.36
2016-12-24T07:03:27.033Z,1012.36
2016-12-24T07:04:37.043Z,1012.35
2016-12-24T07:05:46.761Z,1012.34
2016-12-24T07:06:56.806Z,1012.36
2016-12-24T07:08:07.118Z,1012.39
2016-12-24T07:09:17.134Z,1012.34
2016-12-24T07:10:27.145Z,1012.33
2016-12-24T07:11:37.375Z,1012.26
2016-12-24T07:12:47.090Z,1012.16
2016-12-24T07:13:56.789Z,1012.11
2016-12-24T07:15:06.793Z,1012.07
2016-12-24T07:16:17.113Z,1012.05
2016-12-24T07:17:27.142Z,1012.02
2016-12-24T07:18:37.464Z,1012
2016-12-24T07:19:47.505Z,1012
2016-12-24T07:20:57.823Z,1011.99
2016-12-24T07:22:07.831Z,1012.02
2016-12-24T07:23:18.151Z,1012.07
2016-12-24T07:24:28.478Z,1012.12
2016-12-24T07:25:38.489Z,1012.17
2016-12-24T07:26:48.503Z,1012.18
2016-12-24T07:27:57.582Z,1012.18
2016-12-24T07:29:07.909Z,1012.18
2016-12-24T07:30:18.221Z,1012.19
2016-12-24T07:31:28.258Z,1012.15
2016-12-24T07:32:38.269Z,1012.17
2016-12-24T07:33:48.586Z,1012.17
2016-12-24T07:34:58.897Z,1012.1
2016-12-24T07:36:08.604Z,1012.07
2016-12-24T07:37:18.613Z,1012.09
2016-12-24T07:38:28.927Z,1012.11
2016-12-24T07:39:38.945Z,1012.04
2016-12-24T07:40:48.948Z,1012.05
2016-12-24T07:41:58.350Z,1012.03
2016-12-24T07:43:08.375Z,1012
2016-12-24T07:44:18.080Z,1012
2016-12-24T07:45:27.782Z,1011.99
2016-12-24T07:46:37.827Z,1011.95
2016-12-24T07:47:47.828Z,1011.92
2016-12-24T07:48:58.344Z,1011.95
2016-12-24T07:50:08.906Z,1012.02
2016-12-24T07:51:18.923Z,1012.04
2016-12-24T07:52:28.627Z,1012.04
2016-12-24T07:53:38.644Z,1011.96
2016-12-24T07:54:48.656Z,1011.91
2016-12-24T07:55:58.358Z,1011.91
2016-12-24T07:57:08.369Z,1011.93
2016-12-24T07:58:18.701Z,1011.94
2016-12-24T07:59:29.022Z,1011.9
2016-12-24T08:00:39.029Z,1011.96
2016-12-24T08:01:48.720Z,1011.95
2016-12-24T08:02:59.039Z,1011.99
2016-12-24T08:04:09.049Z,1011.99
2016-12-24T08:05:19.079Z,1012.02
2016-12-24T08:06:29.110Z,1012.04
2016-12-24T08:07:38.834Z,1012.02
2016-12-24T08:08:49.408Z,1012.03
2016-12-24T08:09:59.423Z,1012.05
2016-12-24T08:11:09.735Z,1012.01
2016-12-24T08:12:20.061Z,1011.98
2016-12-24T08:13:30.072Z,1011.96
2016-12-24T08:14:40.397Z,1011.94
2016-12-24T08:15:50.436Z,1011.96
2016-12-24T08:17:00.443Z,1012.01
2016-12-24T08:18:10.463Z,1012.04
2016-12-24T08:19:20.481Z,1012.05
2016-12-24T08:20:29.582Z,1012.09
2016-12-24T08:21:39.618Z,1012.11
2016-12-24T08:22:49.633Z,1012.2
2016-12-24T08:23:59.343Z,1012.17
2016-12-24T08:25:08.725Z,1012.18
2016-12-24T08:26:19.036Z,1012.25
2016-12-24T08:27:29.383Z,1012.26
2016-12-24T08:28:39.702Z,1012.33
2016-12-24T08:29:49.087Z,1012.37
2016-12-24T08:30:59.404Z,1012.38
2016-12-24T08:32:08.802Z,1012.35
2016-12-24T08:33:19.117Z,1012.38
2016-12-24T08:34:29.129Z,1012.31
2016-12-24T08:35:39.445Z,1012.41
2016-12-24T08:36:49.452Z,1012.46
2016-12-24T08:37:59.784Z,1012.43
2016-12-24T08:39:09.800Z,1012.42
2016-12-24T08:40:19.809Z,1012.42
2016-12-24T08:41:30.133Z,1012.44
2016-12-24T08:42:40.461Z,1012.44
2016-12-24T08:43:50.797Z,1012.42
2016-12-24T08:45:00.840Z,1012.43
2016-12-24T08:46:10.856Z,1012.47
2016-12-24T08:47:21.182Z,1012.42
2016-12-24T08:48:31.494Z,1012.47
2016-12-24T08:49:41.510Z,1012.48
2016-12-24T08:50:51.514Z,1012.48
2016-12-24T08:52:01.526Z,1012.47
2016-12-24T08:53:11.541Z,1012.43
2016-12-24T08:54:21.567Z,1012.44
2016-12-24T08:55:31.885Z,1012.42
2016-12-24T08:56:41.905Z,1012.39
2016-12-24T08:57:52.216Z,1012.4
2016-12-24T08:59:02.234Z,1012.38
2016-12-24T09:00:12.565Z,1012.42
2016-12-24T09:01:22.271Z,1012.46
2016-12-24T09:02:32.279Z,1012.49
2016-12-24T09:03:42.592Z,1012.42
2016-12-24T09:04:52.608Z,1012.41
2016-12-24T09:06:02.620Z,1012.41
2016-12-24T09:07:12.966Z,1012.41
2016-12-24T09:08:22.974Z,1012.36
2016-12-24T09:09:33.316Z,1012.39
2016-12-24T09:10:43.347Z,1012.39
2016-12-24T09:11:53.392Z,1012.46
2016-12-24T09:13:03.101Z,1012.44
2016-12-24T09:14:13.430Z,1012.44
2016-12-24T09:15:23.748Z,1012.45
2016-12-24T09:16:34.127Z,1012.45
2016-12-24T09:17:45.961Z,1012.37
2016-12-24T09:18:55.981Z,1012.39
2016-12-24T09:20:06.300Z,1012.42
2016-12-24T09:21:16.648Z,1012.44
2016-12-24T09:22:26.662Z,1012.37
2016-12-24T09:23:36.672Z,1012.35
2016-12-24T09:24:46.992Z,1012.31
2016-12-24T09:25:57.007Z,1012.33
2016-12-24T09:27:07.345Z,1012.3
2016-12-24T09:28:17.063Z,1012.32
2016-12-24T09:29:27.103Z,1012.29
2016-12-24T09:30:37.445Z,1012.34
2016-12-24T09:31:47.461Z,1012.28
2016-12-24T09:32:56.857Z,1012.25
2016-12-24T09:34:06.854Z,1012.21
2016-12-24T09:35:16.884Z,1012.23
2016-12-24T09:36:27.225Z,1012.17
2016-12-24T09:37:37.239Z,1012.22
2016-12-24T09:38:47.581Z,1012.12
2016-12-24T09:39:57.610Z,1012.13
2016-12-24T09:41:07.953Z,1012.17
2016-12-24T09:42:18.289Z,1012.21
2016-12-24T09:43:27.990Z,1012.19
2016-12-24T09:44:38.005Z,1012.15
2016-12-24T09:45:48.355Z,1012.18
2016-12-24T09:46:58.685Z,1012.22
2016-12-24T09:48:08.706Z,1012.09
2016-12-24T09:49:18.407Z,1012.05
2016-12-24T09:50:28.738Z,1012.02
2016-12-24T09:51:38.756Z,1011.93
2016-12-24T09:52:48.782Z,1011.94
2016-12-24T09:53:59.084Z,1011.98
2016-12-24T09:55:09.419Z,1011.91
2016-12-24T09:56:19.452Z,1011.94
2016-12-24T09:57:29.474Z,1011.94
2016-12-24T09:58:39.486Z,1011.9
2016-12-24T09:59:49.502Z,1011.84
2016-12-24T10:00:59.589Z,1011.82
2016-12-24T10:02:09.911Z,1011.78
2016-12-24T10:03:20.242Z,1011.75
2016-12-24T10:04:30.258Z,1011.79
2016-12-24T10:05:40.577Z,1011.79
2016-12-24T10:06:50.917Z,1011.7
2016-12-24T10:08:00.924Z,1011.67
2016-12-24T10:09:10.953Z,1011.7
2016-12-24T10:10:20.982Z,1011.62
2016-12-24T10:11:31.319Z,1011.57
2016-12-24T10:12:41.656Z,1011.57
2016-12-24T10:13:51.677Z,1011.55
2016-12-24T10:15:02.015Z,1011.58
2016-12-24T10:16:11.720Z,1011.57
2016-12-24T10:17:22.044Z,1011.57
2016-12-24T10:18:32.062Z,1011.54
2016-12-24T10:19:41.768Z,1011.56
2016-12-24T10:20:51.473Z,1011.62
2016-12-24T10:22:01.489Z,1011.58
2016-12-24T10:23:11.801Z,1011.53
2016-12-24T10:24:21.822Z,1011.51
2016-12-24T10:25:32.205Z,1011.47
2016-12-24T10:26:42.256Z,1011.49
2016-12-24T10:27:52.267Z,1011.51
2016-12-24T10:29:02.290Z,1011.46
2016-12-24T10:30:12.631Z,1011.47
2016-12-24T10:31:23.074Z,1011.38
2016-12-24T10:32:33.139Z,1011.39
2016-12-24T10:33:43.486Z,1011.35
2016-12-24T10:34:53.552Z,1011.37
2016-12-24T10:36:03.877Z,1011.31
2016-12-24T10:37:14.217Z,1011.26
2016-12-24T10:38:24.545Z,1011.25
2016-12-24T10:39:34.889Z,1011.3
2016-12-24T10:40:45.218Z,1011.25
2016-12-24T10:41:55.231Z,1011.24
2016-12-24T10:43:05.380Z,1011.22
2016-12-24T10:44:17.370Z,1011.21
2016-12-24T10:45:27.450Z,1011.18
2016-12-24T10:46:37.813Z,1011.21
2016-12-24T10:47:48.186Z,1011.13
2016-12-24T10:48:58.554Z,1011.08
2016-12-24T10:50:08.940Z,1011.1
2016-12-24T10:51:18.983Z,1011.07
2016-12-24T10:52:28.992Z,1011.06
2016-12-24T10:53:39.393Z,1011.05
2016-12-24T10:54:49.475Z,1011.01
2016-12-24T10:55:59.862Z,1011
2016-12-24T10:57:10.201Z,1010.99
2016-12-24T10:58:19.942Z,1010.98
2016-12-24T10:59:31.879Z,1010.9
2016-12-24T11:00:44.791Z,1010.87
2016-12-24T11:01:57.309Z,1010.83
2016-12-24T11:03:10.463Z,1010.74
2016-12-24T11:04:23.401Z,1010.73
2016-12-24T11:05:36.568Z,1010.74
2016-12-24T11:06:49.356Z,1010.78
2016-12-24T11:08:02.039Z,1010.76
2016-12-24T11:09:14.069Z,1010.76
2016-12-24T11:10:26.979Z,1010.74
2016-12-24T11:11:39.876Z,1010.73
2016-12-24T11:12:52.011Z,1010.66
2016-12-24T11:14:05.463Z,1010.72
2016-12-24T11:15:17.870Z,1010.65
2016-12-24T11:16:30.908Z,1010.62
2016-12-24T11:17:43.796Z,1010.61
2016-12-24T11:18:56.528Z,1010.52
2016-12-24T11:20:11.114Z,1010.57
2016-12-24T11:21:23.421Z,1010.57
2016-12-24T11:22:35.640Z,1010.52
2016-12-24T11:23:47.163Z,1010.44
2016-12-24T11:24:59.275Z,1010.44
2016-12-24T11:26:11.396Z,1010.38
2016-12-24T11:27:21.724Z,1010.42
2016-12-24T11:28:46.339Z,1010.42
2016-12-24T11:29:56.368Z,1010.38
2016-12-24T11:31:06.401Z,1010.41
2016-12-24T11:32:16.450Z,1010.33
2016-12-24T11:33:26.781Z,1010.32
2016-12-24T11:34:37.133Z,1010.27
2016-12-24T11:35:47.141Z,1010.23
2016-12-24T11:36:57.480Z,1010.22
2016-12-24T11:38:07.498Z,1010.21
2016-12-24T11:39:17.246Z,1010.2
2016-12-24T11:40:27.630Z,1010.21
2016-12-24T11:41:37.383Z,1010.21
2016-12-24T11:42:47.758Z,1010.23
2016-12-24T11:43:57.811Z,1010.14
2016-12-24T11:45:08.228Z,1010.18
2016-12-24T11:46:17.994Z,1010.21
2016-12-24T11:47:28.385Z,1010.21
2016-12-24T11:48:38.760Z,1010.16
2016-12-24T11:49:49.145Z,1010.22
2016-12-24T11:50:59.421Z,1010.13
2016-12-24T11:52:09.482Z,1010.21
2016-12-24T11:53:19.851Z,1010.15
2016-12-24T11:54:30.226Z,1010.2
2016-12-24T11:55:40.557Z,1010.16
2016-12-24T11:56:51.042Z,1010.16
2016-12-24T11:58:01.392Z,1010.24
2016-12-24T11:59:11.418Z,1010.18
2016-12-24T12:00:21.747Z,1010.23
2016-12-24T12:01:32.123Z,1010.19
2016-12-24T12:02:41.847Z,1010.27
2016-12-24T12:03:52.213Z,1010.1
2016-12-24T12:05:02.578Z,1010.15
2016-12-24T12:06:12.930Z,1010.15
2016-12-24T12:07:23.289Z,1010.12
2016-12-24T12:08:33.041Z,1010.1
2016-12-24T12:09:43.420Z,1010.14
2016-12-24T12:10:53.763Z,1010.11
2016-12-24T12:12:04.112Z,1010.12
2016-12-24T12:13:13.842Z,1010.1
2016-12-24T12:14:23.871Z,1009.99
2016-12-24T12:15:34.232Z,1009.94
2016-12-24T12:16:43.338Z,1009.91
2016-12-24T12:17:53.661Z,1009.93
2016-12-24T12:19:03.995Z,1009.92
2016-12-24T12:20:14.366Z,1009.91
2016-12-24T12:21:24.413Z,1009.89
2016-12-24T12:22:34.772Z,1009.85
2016-12-24T12:23:45.124Z,1009.9
2016-12-24T12:24:54.540Z,1009.89
2016-12-24T12:26:04.576Z,1009.86
2016-12-24T12:27:14.607Z,1009.79
2016-12-24T12:28:24.629Z,1009.89
2016-12-24T12:29:34.970Z,1009.87
2016-12-24T12:30:44.986Z,1009.85
2016-12-24T12:31:55.006Z,1009.83
2016-12-24T12:33:05.369Z,1009.92
2016-12-24T12:34:15.396Z,1009.92
2016-12-24T12:35:25.769Z,1009.88
2016-12-24T12:36:35.489Z,1009.93
2016-12-24T12:37:45.508Z,1009.87
2016-12-24T12:38:55.856Z,1009.91
2016-12-24T12:40:06.199Z,1009.91
2016-12-24T12:41:16.233Z,1009.87
2016-12-24T12:42:25.629Z,1009.91
2016-12-24T12:43:35.357Z,1009.88
2016-12-24T12:44:45.712Z,1009.87
2016-12-24T12:45:55.424Z,1009.86
2016-12-24T12:47:05.458Z,1009.9
2016-12-24T12:48:15.520Z,1009.85
2016-12-24T12:49:25.885Z,1009.85
2016-12-24T12:50:35.923Z,1009.76
2016-12-24T12:51:45.653Z,1009.74
2016-12-24T12:52:55.679Z,1009.76
2016-12-24T12:54:06.034Z,1009.69
2016-12-24T12:55:16.399Z,1009.67
2016-12-24T12:56:26.744Z,1009.7
2016-12-24T12:57:37.087Z,1009.65
2016-12-24T12:58:47.155Z,1009.69
2016-12-24T12:59:57.223Z,1009.75
2016-12-24T13:01:07.269Z,1009.73
2016-12-24T13:02:17.633Z,1009.71
2016-12-24T13:03:27.981Z,1009.67
2016-12-24T13:04:38.352Z,1009.7
2016-12-24T13:05:48.085Z,1009.68
2016-12-24T13:06:58.434Z,1009.65
2016-12-24T13:08:08.783Z,1009.62
2016-12-24T13:09:19.155Z,1009.66
2016-12-24T13:10:29.506Z,1009.7
2016-12-24T13:11:39.539Z,1009.7
2016-12-24T13:12:49.285Z,1009.65
2016-12-24T13:13:59.327Z,1009.59
2016-12-24T13:15:09.938Z,1009.57
2016-12-24T13:16:20.320Z,1009.53
2016-12-24T13:17:30.052Z,1009.51
2016-12-24T13:18:40.426Z,1009.49
2016-12-24T13:19:50.836Z,1009.44
2016-12-24T13:21:00.889Z,1009.38
2016-12-24T13:22:10.957Z,1009.39
2016-12-24T13:23:20.722Z,1009.43
2016-12-24T13:24:31.094Z,1009.42
2016-12-24T13:25:41.133Z,1009.41
2016-12-24T13:26:51.486Z,1009.46
2016-12-24T13:28:01.547Z,1009.46
2016-12-24T13:29:11.584Z,1009.46
2016-12-24T13:30:21.671Z,1009.45
2016-12-24T13:31:32.028Z,1009.43
2016-12-24T13:32:42.065Z,1009.48
2016-12-24T13:33:52.428Z,1009.46
2016-12-24T13:35:02.779Z,1009.42
2016-12-24T13:36:12.505Z,1009.48
2016-12-24T13:37:21.934Z,1009.46
2016-12-24T13:38:31.964Z,1009.38
2016-12-24T13:39:42.326Z,1009.53
2016-12-24T13:40:52.381Z,1009.47
2016-12-24T13:42:02.430Z,1009.43
2016-12-24T13:43:12.792Z,1009.44
2016-12-24T13:44:22.866Z,1009.48
2016-12-24T13:45:32.898Z,1009.44
2016-12-24T13:46:42.614Z,1009.38
2016-12-24T13:47:52.962Z,1009.36
2016-12-24T13:49:03.368Z,1009.35
2016-12-24T13:50:13.709Z,1009.28
2016-12-24T13:51:24.083Z,1009.28
2016-12-24T13:52:33.802Z,1009.23
2016-12-24T13:53:44.144Z,1009.11
2016-12-24T13:54:53.878Z,1009.12
2016-12-24T13:56:04.238Z,1009.09
2016-12-24T13:57:14.295Z,1009.11
2016-12-24T13:58:24.652Z,1009.11
2016-12-24T13:59:34.363Z,1009.06
2016-12-24T14:00:44.427Z,1009.09
2016-12-24T14:01:54.488Z,1009.12
2016-12-24T14:03:04.521Z,1009.22
2016-12-24T14:04:14.868Z,1009.1
2016-12-24T14:05:25.199Z,1009.08
2016-12-24T14:06:35.237Z,1009.07
2016-12-24T14:07:45.287Z,1009.04
2016-12-24T14:08:55.620Z,1008.96
2016-12-24T14:10:05.653Z,1009.01
2016-12-24T14:11:15.073Z,1009
2016-12-24T14:12:24.804Z,1009.01
2016-12-24T14:13:35.166Z,1009.04
2016-12-24T14:14:45.519Z,1009.05
2016-12-24T14:15:55.864Z,1009.08
2016-12-24T14:17:06.199Z,1009.08
2016-12-24T14:18:16.247Z,1009.1
2016-12-24T14:19:25.991Z,1009.07
2016-12-24T14:20:36.028Z,1008.95
2016-12-24T14:21:46.393Z,1009.01
2016-12-24T14:22:56.793Z,1008.95
2016-12-24T14:24:06.881Z,1008.84
2016-12-24T14:25:17.228Z,1008.85
2016-12-24T14:26:26.949Z,1008.86
2016-12-24T14:27:37.296Z,1008.91
2016-12-24T14:28:47.643Z,1008.88
2016-12-24T14:29:57.365Z,1008.89
2016-12-24T14:31:07.724Z,1008.95
2016-12-24T14:32:17.749Z,1009.01
2016-12-24T14:33:28.102Z,1009.08
2016-12-24T14:34:38.130Z,1009.14
2016-12-24T14:35:48.220Z,1009.13
2016-12-24T14:36:57.974Z,1009.11
2016-12-24T14:38:07.398Z,1009.17
2016-12-24T14:39:17.449Z,1009.14
2016-12-24T14:40:27.787Z,1009.09
2016-12-24T14:41:38.156Z,1009.1
2016-12-24T14:42:48.480Z,1009.03